createdAt,value
2018-01-13T00:00:28.882Z,2.50
2018-01-13T00:02:56.126Z,2.40
2018-01-13T00:05:23.384Z,2.50
2018-01-13T00:10:23.054Z,2.50
2018-01-13T00:12:49.492Z,2.50
2018-01-13T00:15:16.478Z,2.50
2018-01-13T00:17:44.042Z,2.60
2018-01-13T00:20:10.959Z,2.50
2018-01-13T00:22:38.136Z,2.50
2018-01-13T00:25:05.843Z,2.60
2018-01-13T00:27:32.909Z,2.60
2018-01-13T00:29:59.641Z,2.60
2018-01-13T00:32:27.719Z,2.60
2018-01-13T00:34:53.944Z,2.60
2018-01-13T00:37:20.132Z,2.60
2018-01-13T00:39:46.534Z,2.60
2018-01-13T00:42:13.855Z,2.60
2018-01-13T00:44:40.830Z,2.60
2018-01-13T00:47:07.806Z,2.60
2018-01-13T00:49:34.562Z,2.60
2018-01-13T00:52:00.787Z,2.60
2018-01-13T00:54:27.189Z,2.60
2018-01-13T00:56:53.912Z,2.60
2018-01-13T00:59:21.879Z,2.60
2018-01-13T01:01:50.112Z,2.60
2018-01-13T01:04:17.075Z,2.60
2018-01-13T01:06:44.148Z,2.70
2018-01-13T01:09:11.022Z,2.70
2018-01-13T01:11:37.265Z,2.70
2018-01-13T01:14:03.899Z,2.70
2018-01-13T01:16:31.336Z,2.70
2018-01-13T01:18:58.156Z,2.70
2018-01-13T01:21:24.394Z,2.70
2018-01-13T01:23:52.006Z,2.70
2018-01-13T01:26:19.767Z,2.70
2018-01-13T01:28:45.968Z,2.60
2018-01-13T01:31:12.827Z,2.60
2018-01-13T01:33:39.367Z,2.70
2018-01-13T01:36:06.449Z,2.80
2018-01-13T01:38:34.760Z,2.80
2018-01-13T01:41:01.827Z,2.70
2018-01-13T01:43:28.278Z,2.70
2018-01-13T01:45:54.491Z,2.80
2018-01-13T01:48:24.556Z,2.80
2018-01-13T01:50:52.011Z,2.70
2018-01-13T01:53:19.453Z,2.70
2018-01-13T01:55:46.197Z,2.70
2018-01-13T01:58:12.405Z,2.70
2018-01-13T02:00:39.214Z,2.90
2018-01-13T02:03:05.509Z,2.90
2018-01-13T02:05:31.892Z,2.90
2018-01-13T02:07:59.168Z,2.80
2018-01-13T02:10:25.719Z,2.80
2018-01-13T02:12:53.288Z,2.80
2018-01-13T02:15:20.233Z,2.80
2018-01-13T02:17:47.490Z,2.80
2018-01-13T02:20:15.165Z,2.80
2018-01-13T02:22:42.021Z,2.80
2018-01-13T02:25:09.512Z,2.80
2018-01-13T02:27:37.092Z,2.80
2018-01-13T02:30:03.576Z,2.70
2018-01-13T02:32:29.833Z,2.80
2018-01-13T02:34:56.170Z,2.80
2018-01-13T02:37:23.258Z,2.60
2018-01-13T02:39:49.499Z,2.60
2018-01-13T02:42:15.723Z,2.70
2018-01-13T02:44:42.462Z,2.60
2018-01-13T02:47:09.250Z,2.50
2018-01-13T02:49:36.430Z,2.50
2018-01-13T02:52:03.374Z,2.60
2018-01-13T02:54:30.547Z,2.60
2018-01-13T02:56:57.663Z,2.60
2018-01-13T02:59:25.006Z,2.60
2018-01-13T03:01:51.727Z,2.60
2018-01-13T03:04:18.225Z,2.60
2018-01-13T03:06:45.624Z,2.60
2018-01-13T03:09:12.613Z,2.60
2018-01-13T03:11:39.345Z,2.70
2018-01-13T03:14:06.912Z,2.50
2018-01-13T03:16:34.004Z,2.40
2018-01-13T03:19:00.328Z,2.40
2018-01-13T03:21:26.846Z,2.50
2018-01-13T03:23:53.830Z,2.50
2018-01-13T03:26:20.046Z,2.50
2018-01-13T03:28:46.247Z,2.50
2018-01-13T03:31:13.354Z,2.50
2018-01-13T03:33:41.125Z,2.60
2018-01-13T03:36:08.690Z,2.60
2018-01-13T03:38:35.651Z,2.60
2018-01-13T03:41:01.863Z,2.60
2018-01-13T03:43:28.594Z,2.60
2018-01-13T03:45:55.654Z,2.60
2018-01-13T03:48:22.581Z,2.70
2018-01-13T03:50:49.567Z,2.70
2018-01-13T03:53:15.821Z,2.70
2018-01-13T03:55:42.879Z,2.70
2018-01-13T03:58:10.468Z,2.70
2018-01-13T04:00:37.429Z,2.70
2018-01-13T04:03:03.987Z,2.70
2018-01-13T04:05:30.330Z,2.70
2018-01-13T04:07:57.299Z,2.70
2018-01-13T04:10:23.660Z,2.70
2018-01-13T04:12:50.627Z,2.60
2018-01-13T04:15:16.990Z,2.60
2018-01-13T04:17:43.591Z,2.60
2018-01-13T04:20:11.170Z,2.60
2018-01-13T04:22:37.366Z,2.60
2018-01-13T04:25:03.652Z,2.60
2018-01-13T04:27:30.273Z,2.70
2018-01-13T04:29:58.215Z,2.70
2018-01-13T04:32:24.454Z,2.70
2018-01-13T04:34:50.880Z,2.70
2018-01-13T04:37:17.782Z,2.70
2018-01-13T04:39:44.219Z,2.70
2018-01-13T04:42:11.469Z,2.80
2018-01-13T04:44:39.153Z,2.80
2018-01-13T04:47:06.201Z,2.70
2018-01-13T04:49:32.821Z,2.60
2018-01-13T04:51:59.901Z,2.70
2018-01-13T04:54:26.651Z,2.70
2018-01-13T04:56:53.963Z,2.70
2018-01-13T04:59:21.498Z,2.70
2018-01-13T05:01:49.044Z,2.80
2018-01-13T05:04:16.332Z,2.80
2018-01-13T05:06:44.509Z,2.90
2018-01-13T05:09:11.458Z,2.90
2018-01-13T05:11:39.023Z,2.90
2018-01-13T05:14:05.894Z,2.90
2018-01-13T05:16:32.094Z,2.90
2018-01-13T05:18:59.041Z,2.90
2018-01-13T05:21:26.091Z,2.90
2018-01-13T05:23:52.677Z,2.90
2018-01-13T05:26:21.702Z,2.80
2018-01-13T05:28:48.762Z,2.80
2018-01-13T05:31:16.251Z,2.80
2018-01-13T05:33:43.217Z,2.80
2018-01-13T05:36:09.553Z,3.00
2018-01-13T05:38:35.761Z,3.10
2018-01-13T05:41:01.973Z,3.10
2018-01-13T05:43:29.022Z,3.10
2018-01-13T05:45:56.074Z,3.20
2018-01-13T05:48:23.954Z,3.10
2018-01-13T05:50:50.149Z,3.10
2018-01-13T05:53:16.321Z,3.10
2018-01-13T05:55:43.756Z,3.10
2018-01-13T05:58:10.257Z,3.10
2018-01-13T06:00:37.947Z,3.10
2018-01-13T06:03:05.155Z,3.10
2018-01-13T06:05:32.126Z,3.10
2018-01-13T06:07:58.702Z,3.00
2018-01-13T06:10:25.657Z,3.10
2018-01-13T06:12:51.874Z,3.00
2018-01-13T06:15:18.085Z,3.10
2018-01-13T06:17:44.297Z,3.20
2018-01-13T06:20:11.095Z,3.10
2018-01-13T06:22:38.691Z,3.00
2018-01-13T06:25:04.911Z,3.00
2018-01-13T06:27:31.330Z,3.00
2018-01-13T06:29:59.450Z,3.10
2018-01-13T06:32:25.654Z,3.10
2018-01-13T06:34:52.500Z,3.10
2018-01-13T06:37:19.277Z,3.00
2018-01-13T06:39:46.025Z,3.10
2018-01-13T06:42:13.091Z,3.20
2018-01-13T06:44:40.042Z,3.20
2018-01-13T06:47:07.335Z,3.10
2018-01-13T06:49:34.322Z,3.10
2018-01-13T06:52:02.038Z,3.10
2018-01-13T06:54:28.705Z,3.10
2018-01-13T06:56:55.018Z,3.10
2018-01-13T06:59:22.222Z,3.20
2018-01-13T07:01:49.216Z,3.20
2018-01-13T07:04:15.741Z,3.20
2018-01-13T07:06:43.248Z,3.30
2018-01-13T07:09:10.228Z,3.20
2018-01-13T07:11:37.039Z,3.10
2018-01-13T07:14:04.524Z,3.10
2018-01-13T07:16:31.274Z,3.10
2018-01-13T07:18:57.671Z,3.10
2018-01-13T07:21:24.634Z,3.10
2018-01-13T07:23:50.823Z,3.10
2018-01-13T07:26:17.030Z,3.10
2018-01-13T07:28:43.366Z,3.10
2018-01-13T07:31:09.621Z,3.10
2018-01-13T07:33:37.561Z,3.20
2018-01-13T07:36:04.283Z,3.10
2018-01-13T07:38:30.645Z,3.20
2018-01-13T07:40:58.005Z,3.30
2018-01-13T07:43:25.344Z,3.30
2018-01-13T07:45:52.200Z,3.30
2018-01-13T07:48:19.038Z,3.30
2018-01-13T07:50:47.003Z,3.40
2018-01-13T07:53:13.479Z,3.40
2018-01-13T07:55:40.746Z,3.50
2018-01-13T07:58:06.979Z,3.50
2018-01-13T08:00:33.187Z,3.50
2018-01-13T08:02:59.500Z,3.60
2018-01-13T08:05:27.406Z,3.70
2018-01-13T08:07:54.030Z,3.70
2018-01-13T08:10:21.075Z,4.00
2018-01-13T08:12:47.575Z,4.00
2018-01-13T08:15:14.548Z,4.20
2018-01-13T08:17:40.875Z,4.20
2018-01-13T08:20:07.102Z,4.40
2018-01-13T08:22:33.906Z,4.30
2018-01-13T08:25:01.245Z,4.20
2018-01-13T08:27:28.042Z,4.20
2018-01-13T08:29:54.230Z,4.10
2018-01-13T08:32:21.318Z,4.00
2018-01-13T08:34:47.676Z,4.00
2018-01-13T08:37:15.428Z,4.00
2018-01-13T08:39:41.637Z,4.00
2018-01-13T08:42:07.859Z,4.00
2018-01-13T08:44:34.339Z,4.00
2018-01-13T08:47:01.887Z,4.10
2018-01-13T08:49:28.625Z,4.10
2018-01-13T08:51:55.845Z,4.20
2018-01-13T08:54:23.178Z,4.20
2018-01-13T08:56:50.861Z,4.20
2018-01-13T08:59:17.100Z,4.20
2018-01-13T09:01:44.308Z,4.20
2018-01-13T09:04:10.679Z,4.20
2018-01-13T09:06:37.532Z,4.30
2018-01-13T09:09:04.009Z,4.30
2018-01-13T09:11:31.941Z,4.40
2018-01-13T09:13:58.351Z,4.30
2018-01-13T09:16:25.359Z,4.60
2018-01-13T09:18:51.764Z,4.60
2018-01-13T09:21:18.468Z,4.70
2018-01-13T09:23:45.171Z,4.70
2018-01-13T09:26:12.684Z,4.70
2018-01-13T09:28:39.260Z,4.70
2018-01-13T09:31:06.270Z,4.70
2018-01-13T09:33:32.494Z,4.60
2018-01-13T09:35:58.852Z,4.70
2018-01-13T09:38:25.755Z,4.70
2018-01-13T09:40:51.986Z,4.70
2018-01-13T09:43:18.718Z,4.80
2018-01-13T09:45:45.894Z,4.90
2018-01-13T09:48:12.938Z,5.00
2018-01-13T09:50:39.268Z,5.00
2018-01-13T09:53:06.032Z,5.20
2018-01-13T09:55:33.522Z,5.00
2018-01-13T09:58:00.622Z,5.00
2018-01-13T10:00:27.379Z,5.00
2018-01-13T10:02:54.482Z,5.10
2018-01-13T10:05:21.737Z,5.30
2018-01-13T10:07:49.289Z,5.30
2018-01-13T10:10:15.930Z,5.30
2018-01-13T10:12:43.056Z,5.40
2018-01-13T10:15:10.019Z,5.50
2018-01-13T10:17:36.411Z,5.50
2018-01-13T10:20:02.707Z,5.50
2018-01-13T10:22:28.906Z,5.60
2018-01-13T10:24:55.178Z,5.60
2018-01-13T10:27:21.967Z,5.70
2018-01-13T10:29:48.450Z,5.70
2018-01-13T10:32:16.034Z,5.70
2018-01-13T10:34:42.365Z,5.70
2018-01-13T10:37:10.736Z,5.90
2018-01-13T10:39:37.144Z,5.90
2018-01-13T10:42:04.842Z,6.10
2018-01-13T10:44:32.023Z,6.20
2018-01-13T10:46:59.704Z,6.30
2018-01-13T10:49:26.903Z,6.00
2018-01-13T10:51:53.862Z,6.00
2018-01-13T10:54:20.808Z,6.00
2018-01-13T10:56:47.965Z,6.00
2018-01-13T10:59:15.164Z,6.10
2018-01-13T11:01:42.719Z,6.20
2018-01-13T11:04:10.550Z,6.10
2018-01-13T11:06:38.628Z,6.20
2018-01-13T11:09:05.228Z,6.20
2018-01-13T11:11:32.400Z,6.30
2018-01-13T11:13:59.443Z,6.30
2018-01-13T11:16:27.433Z,6.40
2018-01-13T11:18:53.907Z,6.40
2018-01-13T11:21:21.492Z,6.50
2018-01-13T11:23:49.082Z,6.40
2018-01-13T11:26:15.412Z,6.40
2018-01-13T11:28:41.622Z,6.50
2018-01-13T11:31:09.709Z,6.40
2018-01-13T11:33:36.960Z,6.50
2018-01-13T11:36:04.125Z,6.40
2018-01-13T11:38:30.339Z,6.50
2018-01-13T11:40:57.012Z,6.50
2018-01-13T11:43:24.053Z,6.50
2018-01-13T11:45:50.242Z,6.50
2018-01-13T11:48:16.472Z,6.50
2018-01-13T11:50:43.321Z,6.60
2018-01-13T11:53:09.551Z,6.50
2018-01-13T11:55:35.922Z,6.50
2018-01-13T11:58:02.134Z,6.40
2018-01-13T12:00:28.585Z,6.20
2018-01-13T12:02:54.995Z,6.20
2018-01-13T12:05:21.757Z,6.20
2018-01-13T12:07:49.844Z,6.10
2018-01-13T12:10:16.088Z,6.00
2018-01-13T12:12:43.673Z,6.00
2018-01-13T12:15:10.844Z,6.00
2018-01-13T12:17:37.598Z,5.90
2018-01-13T12:20:04.121Z,6.00
2018-01-13T12:22:31.424Z,5.90
2018-01-13T12:24:59.736Z,5.90
2018-01-13T12:27:27.435Z,6.00
2018-01-13T12:29:54.164Z,6.00
2018-01-13T12:32:20.466Z,6.00
2018-01-13T12:34:46.657Z,6.00
2018-01-13T12:37:13.618Z,6.00
2018-01-13T12:39:40.252Z,5.90
2018-01-13T12:42:06.529Z,5.80
2018-01-13T12:44:32.802Z,5.80
2018-01-13T12:46:59.883Z,5.80
2018-01-13T12:49:26.490Z,5.70
2018-01-13T12:51:53.771Z,5.90
2018-01-13T12:54:20.210Z,5.90
2018-01-13T12:56:47.016Z,5.90
2018-01-13T12:59:14.601Z,5.90
2018-01-13T13:01:41.271Z,5.90
2018-01-13T13:04:08.273Z,5.90
2018-01-13T13:06:35.105Z,5.90
2018-01-13T13:09:01.385Z,6.00
2018-01-13T13:11:28.209Z,6.00
2018-01-13T13:13:54.558Z,6.00
2018-01-13T13:16:21.690Z,6.00
2018-01-13T13:18:48.522Z,6.00
2018-01-13T13:21:14.749Z,6.00
2018-01-13T13:23:42.173Z,5.80
2018-01-13T13:26:09.012Z,5.80
2018-01-13T13:28:36.029Z,5.70
2018-01-13T13:31:02.380Z,5.70
2018-01-13T13:33:29.658Z,5.70
2018-01-13T13:35:56.211Z,5.70
2018-01-13T13:38:22.546Z,5.70
2018-01-13T13:40:49.539Z,5.80
2018-01-13T13:43:15.860Z,5.60
2018-01-13T13:45:42.376Z,5.50
2018-01-13T13:48:09.403Z,5.50
2018-01-13T13:50:36.083Z,5.40
2018-01-13T13:53:03.573Z,5.50
2018-01-13T13:55:29.830Z,5.50
2018-01-13T13:57:57.057Z,5.50
2018-01-13T14:00:23.366Z,5.40
2018-01-13T14:02:50.638Z,5.30
2018-01-13T14:05:17.575Z,5.30
2018-01-13T14:07:43.900Z,5.30
2018-01-13T14:10:11.491Z,5.20
2018-01-13T14:12:38.007Z,5.10
2018-01-13T14:15:05.407Z,5.00
2018-01-13T14:17:33.107Z,5.00
2018-01-13T14:20:00.123Z,5.10
2018-01-13T14:22:26.622Z,5.00
2018-01-13T14:24:53.865Z,4.80
2018-01-13T14:27:20.435Z,4.80
2018-01-13T14:29:46.789Z,4.70
2018-01-13T14:32:13.101Z,4.60
2018-01-13T14:34:39.335Z,4.80
2018-01-13T14:37:06.105Z,4.70
2018-01-13T14:39:33.150Z,4.70
2018-01-13T14:41:59.528Z,4.70
2018-01-13T14:44:25.939Z,4.70
2018-01-13T14:46:53.014Z,4.60
2018-01-13T14:49:19.265Z,4.60
2018-01-13T14:51:46.051Z,4.80
2018-01-13T14:54:13.109Z,4.90
2018-01-13T14:56:40.315Z,4.90
2018-01-13T14:59:07.882Z,5.00
2018-01-13T15:01:34.959Z,4.80
2018-01-13T15:04:02.070Z,4.80
2018-01-13T15:06:28.299Z,4.50
2018-01-13T15:08:54.532Z,4.50
2018-01-13T15:11:21.557Z,4.40
2018-01-13T15:13:48.202Z,4.40
2018-01-13T15:16:14.416Z,4.40
2018-01-13T15:18:40.680Z,4.40
2018-01-13T15:21:09.184Z,4.30
2018-01-13T15:23:35.912Z,4.30
2018-01-13T15:26:03.120Z,4.20
2018-01-13T15:28:29.968Z,4.20
2018-01-13T15:30:56.600Z,4.00
2018-01-13T15:33:23.659Z,4.10
2018-01-13T15:35:50.493Z,4.10
2018-01-13T15:38:18.270Z,4.10
2018-01-13T15:40:45.387Z,4.00
2018-01-13T15:43:11.697Z,4.00
2018-01-13T15:45:38.301Z,4.10
2018-01-13T15:48:05.399Z,4.00
2018-01-13T15:50:31.996Z,4.00
2018-01-13T15:52:58.263Z,4.00
2018-01-13T15:55:24.489Z,3.90
2018-01-13T15:57:50.847Z,3.90
2018-01-13T16:00:17.609Z,3.80
2018-01-13T16:02:44.578Z,3.90
2018-01-13T16:05:11.332Z,3.90
2018-01-13T16:07:38.357Z,3.90
2018-01-13T16:10:04.641Z,3.90
2018-01-13T16:12:31.602Z,3.90
2018-01-13T16:14:58.577Z,4.00
2018-01-13T16:17:25.306Z,4.00
2018-01-13T16:19:52.261Z,3.80
2018-01-13T16:22:18.546Z,3.80
2018-01-13T16:24:46.751Z,3.60
2018-01-13T16:27:14.268Z,3.90
2018-01-13T16:29:41.015Z,3.90
2018-01-13T16:32:07.273Z,3.90
2018-01-13T16:34:34.794Z,3.80
2018-01-13T16:37:01.018Z,3.80
2018-01-13T16:39:27.713Z,3.80
2018-01-13T16:41:54.092Z,3.70
2018-01-13T16:44:21.012Z,3.60
2018-01-13T16:46:47.662Z,3.70
2018-01-13T16:49:14.702Z,3.60
2018-01-13T16:51:41.563Z,3.60
2018-01-13T16:54:08.803Z,3.60
2018-01-13T16:56:35.031Z,3.70
2018-01-13T16:59:01.516Z,3.70
2018-01-13T17:01:29.089Z,3.50
2018-01-13T17:03:56.470Z,3.50
2018-01-13T17:06:23.519Z,3.50
2018-01-13T17:08:49.754Z,3.50
2018-01-13T17:11:15.966Z,3.60
2018-01-13T17:13:42.244Z,3.50
2018-01-13T17:16:09.132Z,3.50
2018-01-13T17:18:36.461Z,3.40
2018-01-13T17:21:04.431Z,3.30
2018-01-13T17:23:31.726Z,3.40
2018-01-13T17:25:58.519Z,3.40
2018-01-13T17:28:26.144Z,3.00
2018-01-13T17:30:53.143Z,3.00
2018-01-13T17:33:19.331Z,3.00
2018-01-13T17:35:46.001Z,3.00
2018-01-13T17:38:13.684Z,2.90
2018-01-13T17:40:40.425Z,2.90
2018-01-13T17:43:07.006Z,2.80
2018-01-13T17:45:33.421Z,2.80
2018-01-13T17:48:00.459Z,2.80
2018-01-13T17:50:27.345Z,2.80
2018-01-13T17:52:53.535Z,2.70
2018-01-13T17:55:20.010Z,2.50
2018-01-13T17:57:47.243Z,2.60
2018-01-13T18:02:47.963Z,2.60
2018-01-13T18:05:15.241Z,2.30
2018-01-13T18:07:42.295Z,2.40
2018-01-13T18:10:08.643Z,2.40
2018-01-13T18:12:36.795Z,2.40
2018-01-13T18:15:03.034Z,2.40
2018-01-13T18:17:29.804Z,2.30
2018-01-13T18:19:56.527Z,2.30
2018-01-13T18:22:23.486Z,2.30
2018-01-13T18:24:49.712Z,2.30
2018-01-13T18:27:16.070Z,2.30
2018-01-13T18:29:42.305Z,2.30
2018-01-13T18:32:08.545Z,2.40
2018-01-13T18:34:35.019Z,2.30
2018-01-13T18:37:02.748Z,2.00
2018-01-13T18:39:29.892Z,2.00
2018-01-13T18:41:56.142Z,2.00
2018-01-13T18:44:23.175Z,2.00
2018-01-13T18:46:50.222Z,2.20
2018-01-13T18:49:16.719Z,2.10
2018-01-13T18:51:44.363Z,2.30
2018-01-13T18:54:10.896Z,2.30
2018-01-13T18:56:38.560Z,2.20
2018-01-13T18:59:04.836Z,2.20
2018-01-13T19:01:31.071Z,2.20
2018-01-13T19:03:57.314Z,2.20
2018-01-13T19:06:24.380Z,2.20
2018-01-13T19:08:51.472Z,2.20
2018-01-13T19:11:18.329Z,2.20
2018-01-13T19:13:46.468Z,2.30
2018-01-13T19:16:13.042Z,2.30
2018-01-13T19:18:40.177Z,2.30
2018-01-13T19:21:06.423Z,2.30
2018-01-13T19:23:32.696Z,2.20
2018-01-13T19:25:58.929Z,2.10
2018-01-13T19:28:25.736Z,2.00
2018-01-13T19:30:52.771Z,2.10
2018-01-13T19:33:19.035Z,2.00
2018-01-13T19:35:46.045Z,2.10
2018-01-13T19:38:14.051Z,2.20
2018-01-13T19:40:41.180Z,2.20
2018-01-13T19:43:08.216Z,2.10
2018-01-13T19:45:34.689Z,2.10
2018-01-13T19:48:02.255Z,2.10
2018-01-13T19:50:28.710Z,2.10
2018-01-13T19:52:56.837Z,2.30
2018-01-13T19:55:23.853Z,2.30
2018-01-13T19:57:50.385Z,2.30
2018-01-13T20:00:17.697Z,2.40
2018-01-13T20:02:45.678Z,2.40
2018-01-13T20:05:12.552Z,2.50
2018-01-13T20:07:39.575Z,2.50
2018-01-13T20:10:06.048Z,2.50
2018-01-13T20:12:33.110Z,2.50
2018-01-13T20:15:00.491Z,2.60
2018-01-13T20:17:27.879Z,2.60
2018-01-13T20:19:55.768Z,2.60
2018-01-13T20:22:22.222Z,2.60
2018-01-13T20:24:50.368Z,2.80
2018-01-13T20:27:16.982Z,2.80
2018-01-13T20:29:44.641Z,3.00
2018-01-13T20:32:11.334Z,3.00
2018-01-13T20:34:38.542Z,3.20
2018-01-13T20:37:05.238Z,3.20
2018-01-13T20:39:32.969Z,3.20
2018-01-13T20:42:01.096Z,3.30
2018-01-13T20:44:28.203Z,3.20
2018-01-13T20:46:56.062Z,3.40
2018-01-13T20:49:23.199Z,3.30
2018-01-13T20:51:50.147Z,3.30
2018-01-13T20:54:17.715Z,3.30
2018-01-13T20:56:45.031Z,3.20
2018-01-13T20:59:11.540Z,3.20
2018-01-13T21:01:38.533Z,3.20
2018-01-13T21:04:05.564Z,3.20
2018-01-13T21:06:32.810Z,3.20
2018-01-13T21:08:59.969Z,3.20
2018-01-13T21:11:26.412Z,3.20
2018-01-13T21:13:53.711Z,3.10
2018-01-13T21:16:20.950Z,3.20
2018-01-13T21:18:47.589Z,3.10
2018-01-13T21:21:15.138Z,3.20
2018-01-13T21:23:42.167Z,3.20
2018-01-13T21:26:09.151Z,3.20
2018-01-13T21:28:35.776Z,3.10
2018-01-13T21:31:02.436Z,3.10
2018-01-13T21:33:28.836Z,3.00
2018-01-13T21:35:56.495Z,3.00
2018-01-13T21:38:23.360Z,3.00
2018-01-13T21:40:51.303Z,2.90
2018-01-13T21:43:18.792Z,2.90
2018-01-13T21:45:46.036Z,2.90
2018-01-13T21:48:12.441Z,2.90
2018-01-13T21:50:39.543Z,2.90
2018-01-13T21:53:05.766Z,2.90
2018-01-13T21:55:33.317Z,2.90
2018-01-13T21:58:00.077Z,2.80
2018-01-13T22:00:26.347Z,2.70
2018-01-13T22:02:53.508Z,2.60
2018-01-13T22:05:20.678Z,2.60
2018-01-13T22:07:47.543Z,2.60
2018-01-13T22:10:14.166Z,2.70
2018-01-13T22:12:40.952Z,2.70
2018-01-13T22:15:09.228Z,2.60
2018-01-13T22:17:35.555Z,2.70
2018-01-13T22:20:01.865Z,2.70
2018-01-13T22:22:28.991Z,2.70
2018-01-13T22:24:55.241Z,2.70
2018-01-13T22:27:21.783Z,2.70
2018-01-13T22:29:48.076Z,2.70
2018-01-13T22:32:14.949Z,2.80
2018-01-13T22:34:41.187Z,2.90
2018-01-13T22:37:08.028Z,2.80
2018-01-13T22:39:35.219Z,2.70
2018-01-13T22:42:02.301Z,2.90
2018-01-13T22:44:29.468Z,2.90
2018-01-13T22:46:56.039Z,2.90
2018-01-13T22:49:23.879Z,2.80
2018-01-13T22:51:50.149Z,2.80
2018-01-13T22:54:17.154Z,2.90
2018-01-13T22:56:44.331Z,2.90
2018-01-13T22:59:11.682Z,3.00
2018-01-13T23:01:39.584Z,3.10
2018-01-13T23:04:06.907Z,3.10
2018-01-13T23:06:34.326Z,3.10
2018-01-13T23:09:00.563Z,3.10
2018-01-13T23:11:26.814Z,3.10
2018-01-13T23:13:53.754Z,3.10
2018-01-13T23:16:20.238Z,3.10
2018-01-13T23:18:47.714Z,3.10
2018-01-13T23:21:14.255Z,3.00
2018-01-13T23:23:41.618Z,3.10
2018-01-13T23:26:08.834Z,2.80
2018-01-13T23:28:35.114Z,2.80
2018-01-13T23:31:01.376Z,2.90
2018-01-13T23:33:28.198Z,2.80
2018-01-13T23:35:55.501Z,3.00
2018-01-13T23:38:23.097Z,2.90
2018-01-13T23:40:49.338Z,2.80
2018-01-13T23:43:17.403Z,2.80
2018-01-13T23:45:44.362Z,2.70
2018-01-13T23:48:11.298Z,2.80
2018-01-13T23:50:39.308Z,2.70
2018-01-13T23:53:05.541Z,2.80
2018-01-13T23:55:33.805Z,2.70
2018-01-13T23:58:00.532Z,2.70
